Time;durP1;ratioP1;P1;durP2;ratioP2;P2;SDS_P1;SDS_P2;PMS_P1;PMS_P2;Temp;Humidity;BMP_temperature;BMP_pressure;BME280_temperature;BME280_humidity;BME280_pressure;Samples;Min_cycle;Max_cycle;Signal;HPM_P1;HPM_P2
2022/04/19 00:00:56;;;;;;;14.07;4.28;;;;;;;;;;4978644;28;97637;-77
2022/04/19 00:03:23;;;;;;;12.38;4.22;;;;;;;;;;4975005;28;96979;-75
2022/04/19 00:05:49;;;;;;;12.98;4.63;;;;;;;;;;4975294;28;97346;-77
2022/04/19 00:08:16;;;;;;;7.18;4.00;;;;;;;;;;4975484;28;95290;-75
2022/04/19 00:10:42;;;;;;;10.57;4.18;;;;;;;;;;4975644;28;97160;-76
2022/04/19 00:13:10;;;;;;;11.77;4.07;;;;;;;;;;4995306;28;97431;-77
2022/04/19 00:15:38;;;;;;;9.00;4.03;;;;;;;;;;4995272;28;95034;-78
2022/04/19 00:18:06;;;;;;;7.28;3.97;;;;;;;;;;4994970;28;96819;-77
2022/04/19 00:20:33;;;;;;;9.05;4.38;;;;;;;;;;4997521;28;97646;-77
2022/04/19 00:23:00;;;;;;;5.82;4.20;;;;;;;;;;4994795;28;96915;-77
2022/04/19 00:25:26;;;;;;;9.57;4.50;;;;;;;;;;4994785;28;97433;-77
2022/04/19 00:27:52;;;;;;;8.63;4.57;;;;;;;;;;4977383;28;95251;-77
2022/04/19 00:30:19;;;;;;;9.60;4.47;;;;;;;;;;4994260;28;96813;-77
2022/04/19 00:32:46;;;;;;;9.40;4.97;;;;;;;;;;4994901;28;97328;-79
2022/04/19 00:35:12;;;;;;;7.25;4.40;;;;;;;;;;4995130;28;95447;-78
2022/04/19 00:37:39;;;;;;;9.75;4.90;;;;;;;;;;4994677;28;95807;-76
2022/04/19 00:40:07;;;;;;;18.90;5.70;;;;;;;;;;4994591;28;97342;-77
2022/04/19 00:42:33;;;;;;;11.20;5.30;;;;;;;;;;4979928;28;95351;-77
2022/04/19 00:45:02;;;;;;;9.70;5.45;;;;;;;;;;4994624;28;97415;-77
2022/04/19 00:47:32;;;;;;;10.35;4.90;;;;;;;;;;4994657;28;95371;-78
2022/04/19 00:50:01;;;;;;;17.45;5.35;;;;;;;;;;4994343;28;96948;-77
2022/04/19 00:52:31;;;;;;;12.45;5.18;;;;;;;;;;4993400;28;97287;-78
2022/04/19 00:54:58;;;;;;;8.80;5.30;;;;;;;;;;4994806;28;95225;-77
2022/04/19 00:57:25;;;;;;;8.40;5.03;;;;;;;;;;4994704;28;96808;-79
2022/04/19 00:59:53;;;;;;;10.30;5.40;;;;;;;;;;4993267;28;96344;-78
2022/04/19 01:02:19;;;;;;;7.63;5.35;;;;;;;;;;4994760;28;95260;-78
2022/04/19 01:04:46;;;;;;;9.95;5.78;;;;;;;;;;4997330;28;96882;-80
2022/04/19 01:07:13;;;;;;;9.80;5.45;;;;;;;;;;4993822;28;95390;-78
2022/04/19 01:09:40;;;;;;;7.90;5.30;;;;;;;;;;4993747;28;96318;-78
2022/04/19 01:14:53;;;;;;;13.32;5.72;;;;;;;;;;4994734;28;95225;-79
2022/04/19 01:17:23;;;;;;;16.23;5.68;;;;;;;;;;4995014;28;96830;-78
2022/04/19 01:19:50;;;;;;;18.05;5.70;;;;;;;;;;4993109;28;96409;-79
2022/04/19 01:22:16;;;;;;;10.43;5.50;;;;;;;;;;4992068;28;95923;-76
2022/04/19 01:24:43;;;;;;;14.68;5.57;;;;;;;;;;4990509;28;96924;-78
2022/04/19 01:27:10;;;;;;;16.90;6.03;;;;;;;;;;4996689;28;97792;-77
2022/04/19 01:29:36;;;;;;;8.38;5.60;;;;;;;;;;4994117;28;96892;-77
2022/04/19 01:32:09;;;;;;;10.98;6.00;;;;;;;;;;4993628;28;97421;-77
2022/04/19 01:34:35;;;;;;;10.70;5.47;;;;;;;;;;4993087;28;95532;-78
2022/04/19 01:37:01;;;;;;;10.88;5.82;;;;;;;;;;4993813;28;96911;-78
2022/04/19 01:42:13;;;;;;;11.00;6.13;;;;;;;;;;4993321;28;95224;-79
2022/04/19 01:44:39;;;;;;;12.63;6.22;;;;;;;;;;4993660;28;96088;-78
2022/04/19 01:47:07;;;;;;;9.38;5.97;;;;;;;;;;4993483;28;97440;-78
2022/04/19 01:49:34;;;;;;;8.80;6.10;;;;;;;;;;4978828;28;95441;-79
2022/04/19 01:52:02;;;;;;;8.27;5.65;;;;;;;;;;4993884;28;97905;-78
2022/04/19 01:54:29;;;;;;;9.02;6.15;;;;;;;;;;4974973;28;95314;-79
2022/04/19 01:56:56;;;;;;;12.85;6.85;;;;;;;;;;4993349;28;97120;-78
2022/04/19 01:59:22;;;;;;;10.68;6.10;;;;;;;;;;4993364;28;96787;-79
2022/04/19 02:01:48;;;;;;;9.38;5.97;;;;;;;;;;4993168;28;95398;-79
2022/04/19 02:04:15;;;;;;;13.13;6.70;;;;;;;;;;4993696;28;96823;-77
2022/04/19 02:06:42;;;;;;;12.02;6.47;;;;;;;;;;4993455;28;97372;-77
2022/04/19 02:09:08;;;;;;;11.07;6.40;;;;;;;;;;4992817;28;95468;-79
2022/04/19 02:11:35;;;;;;;15.32;7.15;;;;;;;;;;4996162;28;97031;-80
2022/04/19 02:14:01;;;;;;;16.15;6.70;;;;;;;;;;4993015;28;95447;-79
2022/04/19 02:16:27;;;;;;;19.10;7.30;;;;;;;;;;4992646;28;97036;-77
2022/04/19 02:18:54;;;;;;;15.15;8.02;;;;;;;;;;4992023;28;96280;-79
2022/04/19 02:21:20;;;;;;;13.02;6.07;;;;;;;;;;4993176;28;95397;-78
2022/04/19 02:23:46;;;;;;;13.20;6.50;;;;;;;;;;4993081;28;96932;-80
2022/04/19 02:26:13;;;;;;;13.20;7.00;;;;;;;;;;4992999;28;97398;-79
2022/04/19 02:28:39;;;;;;;10.63;6.60;;;;;;;;;;4992265;28;95419;-79
2022/04/19 02:31:08;;;;;;;11.70;6.60;;;;;;;;;;4995532;28;95755;-78
2022/04/19 02:33:35;;;;;;;17.17;6.85;;;;;;;;;;4992940;28;96845;-78
2022/04/19 02:36:01;;;;;;;10.77;7.78;;;;;;;;;;4992812;28;96740;-80
2022/04/19 02:38:28;;;;;;;10.68;7.05;;;;;;;;;;4974434;28;97321;-78
2022/04/19 02:40:54;;;;;;;18.30;8.75;;;;;;;;;;4993610;28;95277;-76
2022/04/19 02:43:20;;;;;;;11.80;8.38;;;;;;;;;;4992501;28;99160;-78
2022/04/19 02:45:46;;;;;;;13.40;8.40;;;;;;;;;;4992495;28;97384;-77
2022/04/19 02:48:13;;;;;;;13.15;9.10;;;;;;;;;;4992851;28;95393;-77
2022/04/19 02:50:41;;;;;;;15.85;9.93;;;;;;;;;;4992293;28;96737;-74
2022/04/19 02:53:07;;;;;;;16.05;10.85;;;;;;;;;;4995547;28;96172;-77
2022/04/19 02:55:34;;;;;;;16.58;10.75;;;;;;;;;;4992476;28;97110;-78
2022/04/19 02:58:00;;;;;;;18.23;11.55;;;;;;;;;;4992210;28;97714;-78
2022/04/19 03:00:27;;;;;;;30.30;13.88;;;;;;;;;;4991937;28;95436;-78
2022/04/19 03:02:53;;;;;;;19.85;12.52;;;;;;;;;;4992211;28;96802;-75
2022/04/19 03:05:20;;;;;;;19.30;11.82;;;;;;;;;;4991791;28;97410;-76
2022/04/19 03:07:46;;;;;;;24.60;12.40;;;;;;;;;;4992099;28;95405;-76
2022/04/19 03:10:13;;;;;;;23.83;11.63;;;;;;;;;;4992477;28;96273;-76
2022/04/19 03:12:40;;;;;;;18.40;11.93;;;;;;;;;;4991615;28;98477;-77
2022/04/19 03:15:06;;;;;;;18.88;11.05;;;;;;;;;;4995488;28;95536;-78
2022/04/19 03:17:34;;;;;;;20.70;12.45;;;;;;;;;;4992209;28;96693;-76
2022/04/19 03:20:01;;;;;;;22.98;12.00;;;;;;;;;;4991966;28;95440;-77
2022/04/19 03:27:41;;;;;;;15.65;11.35;;;;;;;;;;4991682;28;95179;-78
2022/04/19 03:28:01;;;;;;;16.10;11.02;;;;;;;;;;4992163;28;95328;-79
2022/04/19 03:30:30;;;;;;;21.13;11.57;;;;;;;;;;4995672;28;96920;-79
2022/04/19 03:32:57;;;;;;;20.35;11.18;;;;;;;;;;4977013;28;97311;-79
2022/04/19 03:35:23;;;;;;;16.55;11.23;;;;;;;;;;4995700;28;95488;-79
2022/04/19 03:37:50;;;;;;;17.13;10.80;;;;;;;;;;4998940;28;96889;-79
2022/04/19 03:40:16;;;;;;;15.77;10.98;;;;;;;;;;4995026;28;95004;-78
2022/04/19 03:42:44;;;;;;;16.02;11.15;;;;;;;;;;4995795;28;95527;-80
2022/04/19 03:45:10;;;;;;;20.25;10.90;;;;;;;;;;4995627;28;97355;-79
2022/04/19 03:47:37;;;;;;;19.80;10.95;;;;;;;;;;4995057;28;95420;-79
2022/04/19 03:50:10;;;;;;;17.10;11.52;;;;;;;;;;4995387;28;95908;-77
2022/04/19 03:52:41;;;;;;;19.40;11.13;;;;;;;;;;4978992;28;101424;-76
2022/04/19 03:55:08;;;;;;;19.65;11.05;;;;;;;;;;4993343;28;95453;-77
2022/04/19 03:57:35;;;;;;;17.63;11.23;;;;;;;;;;4991565;28;96696;-76
2022/04/19 04:00:02;;;;;;;18.48;11.43;;;;;;;;;;4978724;28;97433;-78
2022/04/19 04:02:30;;;;;;;18.83;11.18;;;;;;;;;;4985239;28;97212;-77
2022/04/19 04:04:57;;;;;;;25.70;11.82;;;;;;;;;;4995086;28;96425;-79
2022/04/19 04:07:24;;;;;;;17.85;11.40;;;;;;;;;;4995258;28;95318;-79
2022/04/19 04:09:51;;;;;;;16.77;10.88;;;;;;;;;;4994799;28;96815;-78
2022/04/19 04:12:18;;;;;;;20.52;11.98;;;;;;;;;;4994202;28;97546;-78
2022/04/19 04:14:47;;;;;;;20.10;12.60;;;;;;;;;;4994428;28;95520;-76
2022/04/19 04:17:14;;;;;;;16.55;10.82;;;;;;;;;;4994916;28;95875;-77
2022/04/19 04:19:43;;;;;;;16.65;11.23;;;;;;;;;;4994942;28;95176;-77
2022/04/19 04:22:10;;;;;;;22.85;11.95;;;;;;;;;;4997832;28;95268;-77
2022/04/19 04:24:36;;;;;;;18.13;11.57;;;;;;;;;;4994428;28;99061;-77
2022/04/19 04:27:03;;;;;;;20.92;11.48;;;;;;;;;;4994517;28;95372;-77
2022/04/19 04:29:30;;;;;;;16.80;11.13;;;;;;;;;;4994058;28;96912;-76
2022/04/19 04:31:56;;;;;;;18.27;11.95;;;;;;;;;;4994397;28;97369;-76
2022/04/19 04:34:25;;;;;;;25.33;11.80;;;;;;;;;;4992746;28;95524;-77
2022/04/19 04:36:51;;;;;;;20.27;11.55;;;;;;;;;;4993739;28;96830;-77
2022/04/19 04:39:17;;;;;;;16.98;11.85;;;;;;;;;;4976579;28;97130;-77
2022/04/19 04:41:45;;;;;;;18.20;12.15;;;;;;;;;;4996973;28;96050;-77
2022/04/19 04:44:12;;;;;;;18.75;11.45;;;;;;;;;;4994034;28;97368;-77
2022/04/19 04:49:35;;;;;;;23.88;12.60;;;;;;;;;;4993664;28;96779;-77
2022/04/19 04:52:03;;;;;;;27.60;12.35;;;;;;;;;;4992923;28;96249;-78
2022/04/19 19:39:42;;;;;;;11.82;3.08;;;;;;;;;;5068061;27;97654;-75
2022/04/19 19:42:08;;;;;;;7.38;2.67;;;;;;;;;;5037965;27;97372;-76
2022/04/19 19:44:34;;;;;;;7.30;3.17;;;;;;;;;;5028148;28;95367;-75
2022/04/19 19:47:01;;;;;;;6.43;3.03;;;;;;;;;;5027753;27;97214;-71
2022/04/19 19:49:27;;;;;;;7.00;3.00;;;;;;;;;;5020648;28;96342;-75
2022/04/19 19:51:54;;;;;;;5.03;2.83;;;;;;;;;;5027620;28;95311;-74
2022/04/19 19:54:20;;;;;;;7.20;2.70;;;;;;;;;;5029174;27;96736;-74
2022/04/19 19:56:46;;;;;;;6.65;2.80;;;;;;;;;;5027635;28;97273;-74
2022/04/19 19:59:13;;;;;;;10.73;3.10;;;;;;;;;;5030424;27;95571;-74
2022/04/19 20:01:39;;;;;;;5.32;3.28;;;;;;;;;;5008007;28;97327;-75
2022/04/19 20:04:06;;;;;;;5.95;3.20;;;;;;;;;;5027378;27;95170;-75
2022/04/19 20:06:34;;;;;;;5.15;3.08;;;;;;;;;;5048873;27;97027;-74
2022/04/19 20:09:00;;;;;;;5.65;2.80;;;;;;;;;;5036576;27;96598;-75
2022/04/19 20:11:27;;;;;;;7.28;2.83;;;;;;;;;;5047941;27;95175;-75
2022/04/19 20:13:54;;;;;;;11.43;3.00;;;;;;;;;;5023857;27;96705;-75
2022/04/19 20:16:20;;;;;;;6.50;3.00;;;;;;;;;;5025011;27;97312;-75
2022/04/19 20:18:46;;;;;;;11.18;3.33;;;;;;;;;;5030234;27;95492;-75
2022/04/19 20:21:13;;;;;;;7.32;3.05;;;;;;;;;;5031967;27;95647;-74
2022/04/19 20:23:39;;;;;;;5.47;3.10;;;;;;;;;;5008740;28;95401;-75
2022/04/19 20:26:06;;;;;;;6.50;3.40;;;;;;;;;;5036201;27;97275;-74
2022/04/19 20:28:32;;;;;;;9.43;3.50;;;;;;;;;;5037995;27;97621;-74
2022/04/19 20:30:58;;;;;;;8.18;3.22;;;;;;;;;;5045214;27;95347;-74
2022/04/19 20:33:25;;;;;;;11.88;3.42;;;;;;;;;;5047055;27;95712;-78
2022/04/19 20:35:51;;;;;;;6.47;3.60;;;;;;;;;;5047268;27;97424;-73
2022/04/19 20:38:17;;;;;;;6.63;3.58;;;;;;;;;;5030248;27;95521;-74
2022/04/19 20:40:44;;;;;;;6.35;3.20;;;;;;;;;;5016428;27;95745;-75
2022/04/19 20:43:11;;;;;;;7.03;3.72;;;;;;;;;;5010084;28;96442;-73
2022/04/19 20:45:37;;;;;;;6.93;3.67;;;;;;;;;;5006719;28;97135;-73
2022/04/19 20:50:50;;;;;;;7.75;4.68;;;;;;;;;;5022527;27;95196;-76
2022/04/19 20:53:17;;;;;;;10.25;5.10;;;;;;;;;;4999534;28;95666;-76
2022/04/19 20:55:43;;;;;;;7.93;4.18;;;;;;;;;;5022138;28;97198;-75
2022/04/19 20:58:10;;;;;;;9.15;4.32;;;;;;;;;;5011520;28;96257;-74
2022/04/19 21:00:36;;;;;;;7.72;4.68;;;;;;;;;;5034373;27;96516;-74
2022/04/19 21:03:04;;;;;;;7.30;3.97;;;;;;;;;;5031215;27;97663;-75
2022/04/19 21:05:30;;;;;;;8.98;4.20;;;;;;;;;;5017430;28;95637;-76
2022/04/19 21:07:57;;;;;;;8.60;3.88;;;;;;;;;;5012985;28;97268;-76
2022/04/19 21:10:23;;;;;;;7.90;4.15;;;;;;;;;;5006657;28;95556;-77
2022/04/19 21:12:50;;;;;;;18.10;5.05;;;;;;;;;;5008363;28;95677;-78
2022/04/19 21:15:17;;;;;;;16.90;4.78;;;;;;;;;;5013102;28;97420;-78
2022/04/19 21:17:44;;;;;;;10.00;4.53;;;;;;;;;;5012310;28;95872;-78
2022/04/19 21:20:12;;;;;;;10.75;4.43;;;;;;;;;;5030591;28;97202;-76
2022/04/19 21:22:39;;;;;;;9.13;4.60;;;;;;;;;;5028914;28;97361;-78
2022/04/19 21:25:15;;;;;;;7.60;4.53;;;;;;;;;;5014508;28;95174;-76
2022/04/19 21:27:43;;;;;;;9.45;4.70;;;;;;;;;;5017461;28;96776;-78
2022/04/19 21:30:10;;;;;;;9.82;4.82;;;;;;;;;;5015010;28;95517;-77
2022/04/19 21:32:37;;;;;;;11.85;4.80;;;;;;;;;;5013641;28;97057;-78
2022/04/19 21:35:04;;;;;;;10.50;4.88;;;;;;;;;;5014678;28;97361;-77
2022/04/19 21:37:31;;;;;;;8.07;4.40;;;;;;;;;;4995351;28;95552;-79
2022/04/19 21:39:57;;;;;;;11.20;4.45;;;;;;;;;;5023982;27;95913;-79
2022/04/19 21:42:23;;;;;;;7.20;4.35;;;;;;;;;;5010010;28;98934;-77
2022/04/19 21:44:50;;;;;;;12.48;4.72;;;;;;;;;;5013381;28;96345;-77
2022/04/19 21:47:16;;;;;;;9.18;4.75;;;;;;;;;;5014166;28;96797;-73
2022/04/19 21:49:42;;;;;;;13.13;4.80;;;;;;;;;;5017152;28;95397;-77
2022/04/19 21:52:09;;;;;;;12.07;5.35;;;;;;;;;;5014539;28;98200;-79
2022/04/19 21:54:35;;;;;;;9.38;4.70;;;;;;;;;;5014392;28;97255;-77
2022/04/19 21:57:02;;;;;;;10.52;5.00;;;;;;;;;;5014050;28;95365;-76
2022/04/19 21:59:28;;;;;;;9.32;5.10;;;;;;;;;;5013146;28;96771;-77
2022/04/19 22:01:55;;;;;;;12.75;5.75;;;;;;;;;;5013174;28;97639;-76
2022/04/19 22:04:22;;;;;;;12.02;5.13;;;;;;;;;;5014153;28;95272;-77
2022/04/19 22:06:49;;;;;;;10.23;5.75;;;;;;;;;;5014408;28;96833;-77
2022/04/19 22:09:15;;;;;;;11.43;6.13;;;;;;;;;;5016883;28;98141;-75
2022/04/19 22:11:42;;;;;;;12.07;5.85;;;;;;;;;;5013994;28;97050;-74
2022/04/19 22:14:08;;;;;;;10.57;6.38;;;;;;;;;;5014137;28;97471;-74
2022/04/19 22:16:35;;;;;;;12.77;6.38;;;;;;;;;;5013944;28;95410;-74
2022/04/19 22:19:02;;;;;;;11.50;6.57;;;;;;;;;;5012806;28;96138;-75
2022/04/19 22:21:29;;;;;;;11.60;6.78;;;;;;;;;;5012386;28;97200;-75
2022/04/19 22:23:56;;;;;;;13.75;6.80;;;;;;;;;;5014451;28;95150;-75
2022/04/19 22:26:22;;;;;;;14.57;7.43;;;;;;;;;;5013199;28;96739;-75
2022/04/19 22:28:51;;;;;;;13.18;7.38;;;;;;;;;;5013946;28;97567;-76
2022/04/19 22:31:18;;;;;;;14.60;7.80;;;;;;;;;;5016992;28;95236;-74
2022/04/19 22:33:45;;;;;;;15.02;7.53;;;;;;;;;;5013572;28;97388;-75
2022/04/19 22:36:12;;;;;;;15.30;7.68;;;;;;;;;;5013845;28;95304;-74
2022/04/19 22:38:38;;;;;;;16.10;8.18;;;;;;;;;;5013013;28;95060;-74
2022/04/19 22:41:04;;;;;;;15.65;7.85;;;;;;;;;;5013121;28;97650;-74
2022/04/19 22:43:31;;;;;;;17.88;8.07;;;;;;;;;;5013923;28;95214;-75
2022/04/19 22:45:58;;;;;;;21.73;9.30;;;;;;;;;;5013806;28;97129;-72
2022/04/19 22:48:24;;;;;;;16.35;8.88;;;;;;;;;;5012779;28;96515;-74
2022/04/19 22:50:51;;;;;;;18.02;8.57;;;;;;;;;;5012316;28;95290;-74
2022/04/19 22:53:17;;;;;;;16.05;9.48;;;;;;;;;;5016499;28;96707;-76
2022/04/19 22:55:43;;;;;;;22.60;9.70;;;;;;;;;;5013261;28;95459;-74
2022/04/19 22:58:10;;;;;;;16.63;9.10;;;;;;;;;;5012446;28;96544;-73
2022/04/19 23:00:39;;;;;;;17.48;9.45;;;;;;;;;;5013032;28;97317;-74
2022/04/19 23:03:07;;;;;;;15.23;8.98;;;;;;;;;;5013872;28;95311;-73
2022/04/19 23:05:34;;;;;;;18.20;9.45;;;;;;;;;;5013172;28;96731;-73
2022/04/19 23:08:00;;;;;;;17.98;9.45;;;;;;;;;;5012788;28;95541;-75
2022/04/19 23:10:28;;;;;;;19.00;10.05;;;;;;;;;;5013285;28;95313;-73
2022/04/19 23:12:55;;;;;;;20.00;10.70;;;;;;;;;;5012294;28;96720;-73
2022/04/19 23:15:21;;;;;;;18.38;10.30;;;;;;;;;;5014747;28;95880;-76
2022/04/19 23:17:48;;;;;;;22.67;11.02;;;;;;;;;;5012932;28;96831;-75
2022/04/19 23:20:14;;;;;;;24.48;10.40;;;;;;;;;;5012624;28;97381;-74
2022/04/19 23:22:41;;;;;;;20.65;10.50;;;;;;;;;;5011106;28;95253;-75
2022/04/19 23:25:08;;;;;;;21.40;10.88;;;;;;;;;;5011111;28;97137;-76
2022/04/19 23:27:53;;;;;;;23.67;11.35;;;;;;;;;;5012033;28;96152;-75
2022/04/19 23:30:22;;;;;;;19.98;11.13;;;;;;;;;;5011133;28;95370;-77
2022/04/19 23:32:49;;;;;;;21.55;11.38;;;;;;;;;;5012445;28;96805;-75
2022/04/19 23:35:16;;;;;;;21.63;11.68;;;;;;;;;;5010526;28;97319;-76
2022/04/19 23:37:42;;;;;;;23.08;11.32;;;;;;;;;;5015029;28;95356;-77
2022/04/19 23:40:09;;;;;;;20.98;10.95;;;;;;;;;;5012443;28;97425;-74
2022/04/19 23:42:36;;;;;;;18.83;10.45;;;;;;;;;;5011564;28;95420;-73
2022/04/19 23:45:03;;;;;;;18.20;10.45;;;;;;;;;;5012125;28;96125;-76
2022/04/19 23:47:29;;;;;;;23.88;11.32;;;;;;;;;;5010838;28;97301;-73
2022/04/19 23:49:55;;;;;;;19.58;11.32;;;;;;;;;;5011986;28;95162;-73
2022/04/19 23:52:21;;;;;;;23.55;11.07;;;;;;;;;;5011931;28;96342;-74
2022/04/19 23:54:48;;;;;;;20.85;11.32;;;;;;;;;;5011796;28;96447;-73
2022/04/19 23:57:14;;;;;;;19.70;11.48;;;;;;;;;;5014867;28;96608;-74
2022/04/19 23:59:41;;;;;;;22.15;11.65;;;;;;;;;;5012098;28;97515;-74
